NTAA/PPT METAR and TAF weather

Enter ICAO airport designator
Station Type Date Time Source
NTAA METAR 2021/01/16 03:00 UTC NOAA

NTAA 160300Z 08008KT 040V150 9999 VCSH FEW020CB SCT043 BKN073 29/22 Q1012 WS R22


Station Type Date Time Source
NTAA Decoded METAR 2021/01/16 03:00 UTC NOAA

Tahiti-Faaa, French Polynesia (NTAA) 17-33S 149-37W 2M
Jan 15, 2021 - 10:00 PM EST / 2021.01.16 0300 UTC
Wind: from the E (080 degrees) at 9 MPH (8 KT) (direction variable):0
Visibility: greater than 7 mile(s):0
Sky conditions: mostly cloudy
Weather: showers in the vicinity; Cumulonimbus clouds observed
Temperature: 84 F (29 C)
Dew Point: 71 F (22 C)
Relative Humidity: 65%
Pressure (altimeter): 29.88 in. Hg (1012 hPa)
ob: NTAA 160300Z 08008KT 040V150 9999 VCSH FEW020CB SCT043 BKN073 29/22 Q1012 WS R22
cycle: 3

Station Type Date Time Source
NTAA TAF 2021/01/16 00:52 UTC NOAA

TAF
AMD NTAA 160049Z 1600/1706 VRB05KT 9999 FEW020 SCT050 PROB30
TEMPO 1600/1603 VRB15G25KT 3000 SHRA FEW018CB BKN040
BECMG 1618/1620 05015G25KT
BECMG 1703/1706 VRB05KT

Example: see airport list